This is the latest recevied weather packets stored in our database for station/object AF1E. If no packets are shown the sender has not sent any weather packets the latest 10 day(s).
| Time | Temp. | Humidity | Pressure | Rain* | Wind** | Luminosity | Snow |
|---|---|---|---|---|---|---|---|
| 1777423517 | 15.56° C | 89% | 1015.1 hPa | 0 mm | - | - | - |
| 1777422917 | 15.56° C | 89% | 1015.2 hPa | 0 mm | - | - | - |
| 1777422317 | 15.56° C | 89% | 1014.9 hPa | 0 mm | - | - | - |
| 1777419317 | 17.22° C | 84% | 1015.1 hPa | 0 mm | - | - | - |
| 1777416917 | 17.78° C | 81% | 1014.1 hPa | 0 mm | - | - | - |
| 1777415117 | 17.78° C | 80% | 1014.4 hPa | 0 mm | - | - | - |
| 1777413357 | 18.33° C | 79% | 1014.9 hPa | 0 mm | - | - | - |
| 1777409116 | 17.22° C | 80% | 1015.7 hPa | 0 mm | - | - | - |
| 1777407937 | 17.22° C | 80% | 1016 hPa | 0 mm | - | - | - |
| 1777399516 | 15.56° C | 85% | 1017.9 hPa | 0 mm | - | - | - |
| 1777394116 | 14.44° C | 89% | 1018.9 hPa | 0 mm | - | - | - |
| 1777391716 | 13.33° C | 91% | 1019.5 hPa | 0 mm | - | - | - |
| 1777391116 | 13.33° C | 91% | 1019.5 hPa | 0 mm | - | - | - |
| 1777388116 | 12.78° C | 93% | 1018.9 hPa | 0 mm | - | - | - |
| 1777386316 | 12.22° C | 93% | 1018.8 hPa | 0 mm | - | - | - |
| 1777381516 | 11.67° C | 94% | 1021.3 hPa | 3.81 mm | - | - | - |
| 1777380916 | 11.67° C | 93% | 1021.8 hPa | 4.32 mm | - | - | - |
| 1777379116 | 11.11° C | 93% | 1022.1 hPa | 5.59 mm | - | - | - |
| 1777377916 | 11.11° C | 93% | 1022 hPa | 5.08 mm | - | - | - |
| 1777372516 | 11.11° C | 89% | 1021.6 hPa | 0 mm | - | - | - |
| 1777370118 | 10.56° C | 91% | 1019.7 hPa | 0 mm | - | - | - |
| 1777368318 | 10° C | 91% | 1018.6 hPa | 0 mm | - | - | - |
| 1777362917 | 10° C | 89% | 1018.8 hPa | 0 mm | - | - | - |
| 1777362318 | 10° C | 89% | 1018.8 hPa | 0 mm | - | - | - |
| 1777359337 | 10.56° C | 87% | 1019.3 hPa | 0 mm | - | - | - |
* Rain latest hour (hover to see other rain measurements)
** Current wind speed in m/s (hover to see current wind gust speed)